sensor_id;sensor_type;location;lat;lon;timestamp;P1;durP1;ratioP1;P2;durP2;ratioP2
1282;SDS011;634;48.810;9.148;2022-07-06T00:02:23;3.87;;;2.20;;
1282;SDS011;634;48.810;9.148;2022-07-06T00:04:53;3.67;;;2.77;;
1282;SDS011;634;48.810;9.148;2022-07-06T00:07:23;3.30;;;2.53;;
1282;SDS011;634;48.810;9.148;2022-07-06T00:09:53;2.97;;;2.00;;
1282;SDS011;634;48.810;9.148;2022-07-06T00:12:26;2.50;;;2.20;;
1282;SDS011;634;48.810;9.148;2022-07-06T00:14:58;2.83;;;2.07;;
1282;SDS011;634;48.810;9.148;2022-07-06T00:17:27;2.97;;;2.70;;
1282;SDS011;634;48.810;9.148;2022-07-06T00:19:57;2.30;;;2.03;;
1282;SDS011;634;48.810;9.148;2022-07-06T00:22:26;3.10;;;2.50;;
1282;SDS011;634;48.810;9.148;2022-07-06T00:24:56;2.37;;;1.80;;
1282;SDS011;634;48.810;9.148;2022-07-06T00:27:28;2.20;;;2.00;;
1282;SDS011;634;48.810;9.148;2022-07-06T00:29:57;3.73;;;1.93;;
1282;SDS011;634;48.810;9.148;2022-07-06T00:32:27;4.37;;;1.87;;
1282;SDS011;634;48.810;9.148;2022-07-06T00:34:56;3.43;;;2.17;;
1282;SDS011;634;48.810;9.148;2022-07-06T00:37:26;2.63;;;2.30;;
1282;SDS011;634;48.810;9.148;2022-07-06T00:39:55;3.43;;;2.93;;
1282;SDS011;634;48.810;9.148;2022-07-06T00:42:30;2.83;;;2.40;;
1282;SDS011;634;48.810;9.148;2022-07-06T00:45:11;2.97;;;2.10;;
1282;SDS011;634;48.810;9.148;2022-07-06T00:47:42;2.77;;;2.20;;
1282;SDS011;634;48.810;9.148;2022-07-06T00:50:12;3.17;;;2.40;;
1282;SDS011;634;48.810;9.148;2022-07-06T00:52:47;3.90;;;2.07;;
1282;SDS011;634;48.810;9.148;2022-07-06T00:55:19;7.00;;;2.57;;
1282;SDS011;634;48.810;9.148;2022-07-06T00:57:52;2.67;;;2.40;;
1282;SDS011;634;48.810;9.148;2022-07-06T01:00:24;4.70;;;2.50;;
1282;SDS011;634;48.810;9.148;2022-07-06T01:02:54;3.57;;;2.90;;
1282;SDS011;634;48.810;9.148;2022-07-06T01:05:24;2.77;;;2.30;;
1282;SDS011;634;48.810;9.148;2022-07-06T01:07:53;3.13;;;2.30;;
1282;SDS011;634;48.810;9.148;2022-07-06T01:10:23;3.80;;;2.67;;
1282;SDS011;634;48.810;9.148;2022-07-06T01:12:55;2.97;;;2.40;;
1282;SDS011;634;48.810;9.148;2022-07-06T01:15:26;3.40;;;2.43;;
1282;SDS011;634;48.810;9.148;2022-07-06T01:17:57;4.87;;;2.70;;
1282;SDS011;634;48.810;9.148;2022-07-06T01:20:35;2.60;;;2.37;;
1282;SDS011;634;48.810;9.148;2022-07-06T01:23:05;2.97;;;2.60;;
1282;SDS011;634;48.810;9.148;2022-07-06T01:25:39;4.50;;;2.60;;
1282;SDS011;634;48.810;9.148;2022-07-06T01:28:12;2.40;;;2.20;;
1282;SDS011;634;48.810;9.148;2022-07-06T01:30:43;2.97;;;2.30;;
1282;SDS011;634;48.810;9.148;2022-07-06T01:33:14;2.60;;;2.40;;
1282;SDS011;634;48.810;9.148;2022-07-06T01:35:48;2.53;;;2.33;;
1282;SDS011;634;48.810;9.148;2022-07-06T01:38:18;3.43;;;2.23;;
1282;SDS011;634;48.810;9.148;2022-07-06T01:40:48;2.27;;;1.87;;
1282;SDS011;634;48.810;9.148;2022-07-06T01:43:18;2.93;;;1.93;;
1282;SDS011;634;48.810;9.148;2022-07-06T01:45:47;2.67;;;2.43;;
1282;SDS011;634;48.810;9.148;2022-07-06T01:48:17;4.27;;;2.40;;
1282;SDS011;634;48.810;9.148;2022-07-06T01:50:49;1.87;;;1.77;;
1282;SDS011;634;48.810;9.148;2022-07-06T01:53:18;3.67;;;2.13;;
1282;SDS011;634;48.810;9.148;2022-07-06T01:55:48;3.30;;;2.10;;
1282;SDS011;634;48.810;9.148;2022-07-06T01:58:18;5.87;;;2.27;;
1282;SDS011;634;48.810;9.148;2022-07-06T02:00:47;2.70;;;2.23;;
1282;SDS011;634;48.810;9.148;2022-07-06T02:03:17;5.17;;;2.20;;
1282;SDS011;634;48.810;9.148;2022-07-06T02:05:51;4.97;;;2.40;;
1282;SDS011;634;48.810;9.148;2022-07-06T02:08:23;2.23;;;1.97;;
1282;SDS011;634;48.810;9.148;2022-07-06T02:10:54;2.90;;;2.07;;
1282;SDS011;634;48.810;9.148;2022-07-06T02:13:24;5.90;;;1.97;;
1282;SDS011;634;48.810;9.148;2022-07-06T02:15:54;2.40;;;2.20;;
1282;SDS011;634;48.810;9.148;2022-07-06T02:18:23;3.13;;;2.50;;
1282;SDS011;634;48.810;9.148;2022-07-06T02:20:57;3.20;;;1.97;;
1282;SDS011;634;48.810;9.148;2022-07-06T02:23:27;2.30;;;1.90;;
1282;SDS011;634;48.810;9.148;2022-07-06T02:25:57;3.67;;;2.20;;
1282;SDS011;634;48.810;9.148;2022-07-06T02:28:27;3.73;;;1.87;;
1282;SDS011;634;48.810;9.148;2022-07-06T02:30:59;3.70;;;2.47;;
1282;SDS011;634;48.810;9.148;2022-07-06T02:33:29;2.27;;;2.07;;
1282;SDS011;634;48.810;9.148;2022-07-06T02:36:02;4.20;;;2.30;;
1282;SDS011;634;48.810;9.148;2022-07-06T02:38:36;2.73;;;2.00;;
1282;SDS011;634;48.810;9.148;2022-07-06T02:41:05;2.10;;;1.90;;
1282;SDS011;634;48.810;9.148;2022-07-06T02:43:37;3.73;;;2.30;;
1282;SDS011;634;48.810;9.148;2022-07-06T02:46:10;3.13;;;2.33;;
1282;SDS011;634;48.810;9.148;2022-07-06T02:48:41;3.63;;;2.37;;
1282;SDS011;634;48.810;9.148;2022-07-06T02:51:13;3.23;;;2.47;;
1282;SDS011;634;48.810;9.148;2022-07-06T02:53:43;3.80;;;2.23;;
1282;SDS011;634;48.810;9.148;2022-07-06T02:56:12;2.63;;;2.43;;
1282;SDS011;634;48.810;9.148;2022-07-06T02:58:44;4.03;;;2.80;;
1282;SDS011;634;48.810;9.148;2022-07-06T03:01:14;3.70;;;2.20;;
1282;SDS011;634;48.810;9.148;2022-07-06T03:03:43;2.73;;;2.53;;
1282;SDS011;634;48.810;9.148;2022-07-06T03:06:18;2.67;;;2.30;;
1282;SDS011;634;48.810;9.148;2022-07-06T03:08:48;3.73;;;2.47;;
1282;SDS011;634;48.810;9.148;2022-07-06T03:11:18;4.63;;;2.60;;
1282;SDS011;634;48.810;9.148;2022-07-06T03:13:47;2.77;;;2.47;;
1282;SDS011;634;48.810;9.148;2022-07-06T03:16:20;2.73;;;2.07;;
1282;SDS011;634;48.810;9.148;2022-07-06T03:18:50;3.17;;;2.30;;
1282;SDS011;634;48.810;9.148;2022-07-06T03:21:22;3.03;;;2.43;;
1282;SDS011;634;48.810;9.148;2022-07-06T03:23:52;3.00;;;1.93;;
1282;SDS011;634;48.810;9.148;2022-07-06T03:26:21;3.63;;;1.97;;
1282;SDS011;634;48.810;9.148;2022-07-06T03:28:55;2.90;;;2.67;;
1282;SDS011;634;48.810;9.148;2022-07-06T03:31:25;4.97;;;3.10;;
1282;SDS011;634;48.810;9.148;2022-07-06T03:33:54;2.87;;;2.57;;
1282;SDS011;634;48.810;9.148;2022-07-06T03:36:27;3.30;;;2.20;;
1282;SDS011;634;48.810;9.148;2022-07-06T03:38:59;5.50;;;2.30;;
1282;SDS011;634;48.810;9.148;2022-07-06T03:41:28;4.70;;;3.50;;
1282;SDS011;634;48.810;9.148;2022-07-06T03:43:59;2.67;;;2.33;;
1282;SDS011;634;48.810;9.148;2022-07-06T03:46:29;4.10;;;2.50;;
1282;SDS011;634;48.810;9.148;2022-07-06T03:49:00;3.00;;;2.50;;
1282;SDS011;634;48.810;9.148;2022-07-06T03:51:34;4.30;;;2.70;;
1282;SDS011;634;48.810;9.148;2022-07-06T03:54:05;5.00;;;2.67;;
1282;SDS011;634;48.810;9.148;2022-07-06T03:56:35;2.90;;;2.43;;
1282;SDS011;634;48.810;9.148;2022-07-06T03:59:11;3.00;;;2.30;;
1282;SDS011;634;48.810;9.148;2022-07-06T04:01:44;4.10;;;2.10;;
1282;SDS011;634;48.810;9.148;2022-07-06T04:04:16;5.73;;;4.27;;
1282;SDS011;634;48.810;9.148;2022-07-06T04:06:50;2.83;;;2.50;;
1282;SDS011;634;48.810;9.148;2022-07-06T04:09:19;3.50;;;2.73;;
1282;SDS011;634;48.810;9.148;2022-07-06T04:11:49;3.07;;;2.77;;
1282;SDS011;634;48.810;9.148;2022-07-06T04:14:19;2.90;;;2.70;;
1282;SDS011;634;48.810;9.148;2022-07-06T04:16:49;4.67;;;2.83;;
1282;SDS011;634;48.810;9.148;2022-07-06T04:19:19;6.43;;;3.17;;
1282;SDS011;634;48.810;9.148;2022-07-06T04:21:51;2.87;;;2.57;;
1282;SDS011;634;48.810;9.148;2022-07-06T04:24:21;4.53;;;3.40;;
1282;SDS011;634;48.810;9.148;2022-07-06T04:26:51;4.00;;;3.00;;
1282;SDS011;634;48.810;9.148;2022-07-06T04:29:20;6.87;;;4.43;;
1282;SDS011;634;48.810;9.148;2022-07-06T04:31:52;4.77;;;3.47;;
1282;SDS011;634;48.810;9.148;2022-07-06T04:34:22;4.23;;;2.83;;
1282;SDS011;634;48.810;9.148;2022-07-06T04:36:54;3.80;;;3.40;;
1282;SDS011;634;48.810;9.148;2022-07-06T04:39:24;5.90;;;4.20;;
1282;SDS011;634;48.810;9.148;2022-07-06T04:41:53;5.20;;;4.30;;
1282;SDS011;634;48.810;9.148;2022-07-06T04:44:23;6.50;;;4.37;;
1282;SDS011;634;48.810;9.148;2022-07-06T04:46:53;11.83;;;7.17;;
1282;SDS011;634;48.810;9.148;2022-07-06T04:49:22;4.50;;;4.10;;
1282;SDS011;634;48.810;9.148;2022-07-06T04:51:55;6.50;;;4.23;;
1282;SDS011;634;48.810;9.148;2022-07-06T04:54:25;7.40;;;4.50;;
1282;SDS011;634;48.810;9.148;2022-07-06T04:56:54;10.43;;;7.00;;
1282;SDS011;634;48.810;9.148;2022-07-06T04:59:24;5.43;;;3.90;;
1282;SDS011;634;48.810;9.148;2022-07-06T05:01:54;6.73;;;5.77;;
1282;SDS011;634;48.810;9.148;2022-07-06T05:04:24;9.90;;;7.00;;
1282;SDS011;634;48.810;9.148;2022-07-06T05:06:58;5.47;;;4.90;;
1282;SDS011;634;48.810;9.148;2022-07-06T05:09:30;7.80;;;6.60;;
1282;SDS011;634;48.810;9.148;2022-07-06T05:12:00;4.77;;;4.20;;
1282;SDS011;634;48.810;9.148;2022-07-06T05:14:32;6.40;;;4.80;;
1282;SDS011;634;48.810;9.148;2022-07-06T05:17:05;7.40;;;4.87;;
1282;SDS011;634;48.810;9.148;2022-07-06T05:19:35;5.93;;;4.23;;
1282;SDS011;634;48.810;9.148;2022-07-06T05:22:10;6.43;;;5.20;;
1282;SDS011;634;48.810;9.148;2022-07-06T05:24:40;6.83;;;4.23;;
1282;SDS011;634;48.810;9.148;2022-07-06T05:27:13;7.17;;;4.13;;
1282;SDS011;634;48.810;9.148;2022-07-06T05:29:44;6.60;;;4.53;;
1282;SDS011;634;48.810;9.148;2022-07-06T05:32:15;5.73;;;3.37;;
1282;SDS011;634;48.810;9.148;2022-07-06T05:34:44;4.00;;;3.20;;
1282;SDS011;634;48.810;9.148;2022-07-06T05:37:16;4.63;;;3.50;;
1282;SDS011;634;48.810;9.148;2022-07-06T05:39:46;4.40;;;3.30;;
1282;SDS011;634;48.810;9.148;2022-07-06T05:42:18;3.50;;;3.20;;
1282;SDS011;634;48.810;9.148;2022-07-06T05:44:48;4.33;;;3.30;;
1282;SDS011;634;48.810;9.148;2022-07-06T05:47:17;3.47;;;3.17;;
1282;SDS011;634;48.810;9.148;2022-07-06T05:50:02;3.73;;;3.00;;
1282;SDS011;634;48.810;9.148;2022-07-06T05:52:57;2.83;;;2.60;;
1282;SDS011;634;48.810;9.148;2022-07-06T05:55:29;3.53;;;3.00;;
1282;SDS011;634;48.810;9.148;2022-07-06T05:58:05;3.50;;;3.00;;
1282;SDS011;634;48.810;9.148;2022-07-06T06:00:36;6.07;;;2.97;;
1282;SDS011;634;48.810;9.148;2022-07-06T06:03:12;3.57;;;3.27;;
1282;SDS011;634;48.810;9.148;2022-07-06T06:05:42;4.77;;;2.87;;
1282;SDS011;634;48.810;9.148;2022-07-06T06:08:18;5.17;;;3.40;;
1282;SDS011;634;48.810;9.148;2022-07-06T06:10:50;3.90;;;2.50;;
1282;SDS011;634;48.810;9.148;2022-07-06T06:13:22;4.30;;;3.30;;
1282;SDS011;634;48.810;9.148;2022-07-06T06:15:54;5.60;;;3.17;;
1282;SDS011;634;48.810;9.148;2022-07-06T06:18:26;3.87;;;2.80;;
1282;SDS011;634;48.810;9.148;2022-07-06T06:20:56;3.60;;;3.30;;
1282;SDS011;634;48.810;9.148;2022-07-06T06:23:30;4.40;;;3.37;;
1282;SDS011;634;48.810;9.148;2022-07-06T06:26:00;4.00;;;2.90;;
1282;SDS011;634;48.810;9.148;2022-07-06T06:28:30;5.13;;;3.10;;
1282;SDS011;634;48.810;9.148;2022-07-06T06:31:01;5.73;;;3.20;;
1282;SDS011;634;48.810;9.148;2022-07-06T06:33:33;3.80;;;3.00;;
1282;SDS011;634;48.810;9.148;2022-07-06T06:36:03;4.43;;;2.70;;
1282;SDS011;634;48.810;9.148;2022-07-06T06:38:38;4.53;;;3.47;;
1282;SDS011;634;48.810;9.148;2022-07-06T06:41:07;4.03;;;2.97;;
1282;SDS011;634;48.810;9.148;2022-07-06T06:43:37;3.87;;;3.07;;
1282;SDS011;634;48.810;9.148;2022-07-06T06:46:13;3.63;;;2.77;;
1282;SDS011;634;48.810;9.148;2022-07-06T06:48:42;8.57;;;5.50;;
1282;SDS011;634;48.810;9.148;2022-07-06T06:51:14;5.53;;;3.93;;
1282;SDS011;634;48.810;9.148;2022-07-06T06:53:46;4.33;;;3.50;;
1282;SDS011;634;48.810;9.148;2022-07-06T06:56:16;5.20;;;3.10;;
1282;SDS011;634;48.810;9.148;2022-07-06T06:58:46;4.17;;;2.60;;
1282;SDS011;634;48.810;9.148;2022-07-06T07:01:20;5.13;;;3.00;;
1282;SDS011;634;48.810;9.148;2022-07-06T07:03:50;5.60;;;3.40;;
1282;SDS011;634;48.810;9.148;2022-07-06T07:06:21;3.90;;;2.77;;
1282;SDS011;634;48.810;9.148;2022-07-06T07:08:53;3.33;;;2.83;;
1282;SDS011;634;48.810;9.148;2022-07-06T07:11:23;9.23;;;3.93;;
1282;SDS011;634;48.810;9.148;2022-07-06T07:13:55;5.13;;;2.80;;
1282;SDS011;634;48.810;9.148;2022-07-06T07:16:26;3.70;;;2.50;;
1282;SDS011;634;48.810;9.148;2022-07-06T07:18:58;6.93;;;2.60;;
1282;SDS011;634;48.810;9.148;2022-07-06T07:21:27;3.30;;;2.87;;
1282;SDS011;634;48.810;9.148;2022-07-06T07:23:59;3.77;;;2.53;;
1282;SDS011;634;48.810;9.148;2022-07-06T07:26:29;3.93;;;3.00;;
1282;SDS011;634;48.810;9.148;2022-07-06T07:28:59;3.20;;;2.60;;
1282;SDS011;634;48.810;9.148;2022-07-06T07:31:29;3.47;;;2.53;;
1282;SDS011;634;48.810;9.148;2022-07-06T07:33:58;6.13;;;3.03;;
1282;SDS011;634;48.810;9.148;2022-07-06T07:36:30;5.50;;;3.17;;
1282;SDS011;634;48.810;9.148;2022-07-06T07:39:03;7.97;;;6.27;;
1282;SDS011;634;48.810;9.148;2022-07-06T07:41:33;4.90;;;3.30;;
1282;SDS011;634;48.810;9.148;2022-07-06T07:44:03;4.13;;;3.73;;
1282;SDS011;634;48.810;9.148;2022-07-06T07:46:38;4.40;;;3.27;;
1282;SDS011;634;48.810;9.148;2022-07-06T07:49:07;3.63;;;2.90;;
1282;SDS011;634;48.810;9.148;2022-07-06T07:51:38;3.70;;;2.20;;
1282;SDS011;634;48.810;9.148;2022-07-06T07:54:10;2.77;;;2.57;;
1282;SDS011;634;48.810;9.148;2022-07-06T07:56:39;7.90;;;3.50;;
1282;SDS011;634;48.810;9.148;2022-07-06T07:59:09;4.40;;;3.20;;
1282;SDS011;634;48.810;9.148;2022-07-06T08:01:40;5.60;;;2.53;;
1282;SDS011;634;48.810;9.148;2022-07-06T08:04:10;3.13;;;2.43;;
1282;SDS011;634;48.810;9.148;2022-07-06T08:06:39;3.30;;;2.93;;
1282;SDS011;634;48.810;9.148;2022-07-06T08:09:11;8.47;;;3.40;;
1282;SDS011;634;48.810;9.148;2022-07-06T08:11:44;6.03;;;2.90;;
1282;SDS011;634;48.810;9.148;2022-07-06T08:14:16;3.97;;;2.50;;
1282;SDS011;634;48.810;9.148;2022-07-06T08:16:48;4.50;;;3.30;;
1282;SDS011;634;48.810;9.148;2022-07-06T08:19:18;4.17;;;2.00;;
1282;SDS011;634;48.810;9.148;2022-07-06T08:21:49;6.20;;;2.57;;
1282;SDS011;634;48.810;9.148;2022-07-06T08:24:22;4.60;;;2.60;;
1282;SDS011;634;48.810;9.148;2022-07-06T08:26:54;5.10;;;2.40;;
1282;SDS011;634;48.810;9.148;2022-07-06T08:29:24;6.23;;;2.60;;
1282;SDS011;634;48.810;9.148;2022-07-06T08:31:53;3.20;;;2.63;;
1282;SDS011;634;48.810;9.148;2022-07-06T08:34:23;2.93;;;2.73;;
1282;SDS011;634;48.810;9.148;2022-07-06T08:36:53;6.00;;;3.17;;
1282;SDS011;634;48.810;9.148;2022-07-06T08:39:25;5.03;;;2.80;;
1282;SDS011;634;48.810;9.148;2022-07-06T08:41:55;3.90;;;2.17;;
1282;SDS011;634;48.810;9.148;2022-07-06T08:44:30;2.50;;;2.03;;
1282;SDS011;634;48.810;9.148;2022-07-06T08:47:02;5.17;;;2.60;;
1282;SDS011;634;48.810;9.148;2022-07-06T08:49:38;8.07;;;3.07;;
1282;SDS011;634;48.810;9.148;2022-07-06T08:52:08;3.00;;;2.30;;
1282;SDS011;634;48.810;9.148;2022-07-06T08:54:43;4.47;;;2.00;;
1282;SDS011;634;48.810;9.148;2022-07-06T08:57:16;4.27;;;3.20;;
1282;SDS011;634;48.810;9.148;2022-07-06T08:59:46;7.87;;;2.90;;
1282;SDS011;634;48.810;9.148;2022-07-06T09:02:15;2.30;;;2.10;;
1282;SDS011;634;48.810;9.148;2022-07-06T09:04:46;5.50;;;2.20;;
1282;SDS011;634;48.810;9.148;2022-07-06T09:07:16;2.50;;;2.13;;
1282;SDS011;634;48.810;9.148;2022-07-06T09:09:49;5.43;;;2.60;;
1282;SDS011;634;48.810;9.148;2022-07-06T09:12:21;2.67;;;2.30;;
1282;SDS011;634;48.810;9.148;2022-07-06T09:14:54;6.50;;;2.63;;
1282;SDS011;634;48.810;9.148;2022-07-06T09:17:25;2.23;;;2.03;;
1282;SDS011;634;48.810;9.148;2022-07-06T09:19:55;2.80;;;2.20;;
1282;SDS011;634;48.810;9.148;2022-07-06T09:22:25;5.67;;;2.13;;
1282;SDS011;634;48.810;9.148;2022-07-06T09:25:06;4.00;;;2.20;;
1282;SDS011;634;48.810;9.148;2022-07-06T09:27:38;3.40;;;2.10;;
1282;SDS011;634;48.810;9.148;2022-07-06T09:30:09;2.07;;;1.97;;
1282;SDS011;634;48.810;9.148;2022-07-06T09:32:39;5.00;;;2.37;;
1282;SDS011;634;48.810;9.148;2022-07-06T09:35:18;4.73;;;2.50;;
1282;SDS011;634;48.810;9.148;2022-07-06T09:37:59;6.07;;;2.20;;
1282;SDS011;634;48.810;9.148;2022-07-06T09:40:33;2.90;;;2.27;;
1282;SDS011;634;48.810;9.148;2022-07-06T09:43:07;3.27;;;2.10;;
1282;SDS011;634;48.810;9.148;2022-07-06T09:45:42;3.87;;;2.33;;
1282;SDS011;634;48.810;9.148;2022-07-06T09:48:13;10.67;;;2.53;;
1282;SDS011;634;48.810;9.148;2022-07-06T09:50:47;4.53;;;2.60;;
1282;SDS011;634;48.810;9.148;2022-07-06T09:53:20;5.60;;;1.93;;
1282;SDS011;634;48.810;9.148;2022-07-06T09:55:53;2.60;;;2.33;;
1282;SDS011;634;48.810;9.148;2022-07-06T09:58:24;4.20;;;2.50;;
1282;SDS011;634;48.810;9.148;2022-07-06T10:00:56;3.93;;;2.23;;
1282;SDS011;634;48.810;9.148;2022-07-06T10:03:25;4.70;;;2.27;;
1282;SDS011;634;48.810;9.148;2022-07-06T10:05:55;2.07;;;1.90;;
1282;SDS011;634;48.810;9.148;2022-07-06T10:08:24;2.27;;;2.07;;
1282;SDS011;634;48.810;9.148;2022-07-06T10:10:59;4.73;;;2.60;;
1282;SDS011;634;48.810;9.148;2022-07-06T10:13:29;2.80;;;2.20;;
1282;SDS011;634;48.810;9.148;2022-07-06T10:16:04;2.63;;;2.20;;
1282;SDS011;634;48.810;9.148;2022-07-06T10:18:34;2.13;;;1.90;;
1282;SDS011;634;48.810;9.148;2022-07-06T10:21:06;2.43;;;2.20;;
1282;SDS011;634;48.810;9.148;2022-07-06T10:23:38;7.20;;;3.80;;
1282;SDS011;634;48.810;9.148;2022-07-06T10:26:13;2.67;;;1.90;;
1282;SDS011;634;48.810;9.148;2022-07-06T10:28:43;2.30;;;2.03;;
1282;SDS011;634;48.810;9.148;2022-07-06T10:31:13;3.43;;;1.90;;
1282;SDS011;634;48.810;9.148;2022-07-06T10:33:44;6.70;;;2.17;;
1282;SDS011;634;48.810;9.148;2022-07-06T10:36:17;2.93;;;2.07;;
1282;SDS011;634;48.810;9.148;2022-07-06T10:38:53;3.00;;;2.30;;
1282;SDS011;634;48.810;9.148;2022-07-06T10:41:32;1.93;;;1.70;;
1282;SDS011;634;48.810;9.148;2022-07-06T10:44:14;2.43;;;2.10;;
1282;SDS011;634;48.810;9.148;2022-07-06T10:46:51;2.93;;;1.87;;
1282;SDS011;634;48.810;9.148;2022-07-06T10:49:22;2.90;;;1.70;;
1282;SDS011;634;48.810;9.148;2022-07-06T10:51:52;3.87;;;2.23;;
1282;SDS011;634;48.810;9.148;2022-07-06T10:54:24;2.97;;;2.40;;
1282;SDS011;634;48.810;9.148;2022-07-06T10:56:57;5.00;;;2.00;;
1282;SDS011;634;48.810;9.148;2022-07-06T10:59:41;3.90;;;2.20;;
1282;SDS011;634;48.810;9.148;2022-07-06T11:02:37;4.30;;;3.43;;
1282;SDS011;634;48.810;9.148;2022-07-06T11:05:10;3.50;;;2.50;;
1282;SDS011;634;48.810;9.148;2022-07-06T11:07:48;3.70;;;2.60;;
1282;SDS011;634;48.810;9.148;2022-07-06T11:10:18;5.03;;;2.80;;
1282;SDS011;634;48.810;9.148;2022-07-06T11:13:00;4.33;;;2.80;;
1282;SDS011;634;48.810;9.148;2022-07-06T11:15:46;4.23;;;2.90;;
1282;SDS011;634;48.810;9.148;2022-07-06T11:18:18;3.80;;;2.70;;
1282;SDS011;634;48.810;9.148;2022-07-06T11:23:45;5.67;;;2.70;;
1282;SDS011;634;48.810;9.148;2022-07-06T11:26:16;5.33;;;2.73;;
1282;SDS011;634;48.810;9.148;2022-07-06T11:28:52;4.40;;;2.23;;
1282;SDS011;634;48.810;9.148;2022-07-06T11:31:22;2.83;;;2.63;;
1282;SDS011;634;48.810;9.148;2022-07-06T11:33:52;5.40;;;2.70;;
1282;SDS011;634;48.810;9.148;2022-07-06T11:36:21;4.70;;;2.80;;
1282;SDS011;634;48.810;9.148;2022-07-06T11:38:51;2.33;;;2.13;;
1282;SDS011;634;48.810;9.148;2022-07-06T11:41:20;4.77;;;2.07;;
1282;SDS011;634;48.810;9.148;2022-07-06T11:43:53;4.60;;;2.50;;
1282;SDS011;634;48.810;9.148;2022-07-06T11:46:25;4.07;;;2.53;;
1282;SDS011;634;48.810;9.148;2022-07-06T11:48:56;5.80;;;2.47;;
1282;SDS011;634;48.810;9.148;2022-07-06T11:51:27;3.53;;;2.30;;
1282;SDS011;634;48.810;9.148;2022-07-06T11:53:58;4.60;;;2.70;;
1282;SDS011;634;48.810;9.148;2022-07-06T11:56:28;4.10;;;2.40;;
1282;SDS011;634;48.810;9.148;2022-07-06T11:59:01;2.90;;;2.20;;
1282;SDS011;634;48.810;9.148;2022-07-06T12:01:31;7.30;;;2.70;;
1282;SDS011;634;48.810;9.148;2022-07-06T12:04:04;3.73;;;2.63;;
1282;SDS011;634;48.810;9.148;2022-07-06T12:06:33;5.13;;;2.50;;
1282;SDS011;634;48.810;9.148;2022-07-06T12:09:03;3.30;;;2.40;;
1282;SDS011;634;48.810;9.148;2022-07-06T12:11:33;4.50;;;2.47;;
1282;SDS011;634;48.810;9.148;2022-07-06T12:14:15;4.30;;;2.93;;
1282;SDS011;634;48.810;9.148;2022-07-06T12:16:46;5.30;;;2.60;;
1282;SDS011;634;48.810;9.148;2022-07-06T12:19:17;7.87;;;2.90;;
1282;SDS011;634;48.810;9.148;2022-07-06T12:21:51;4.20;;;2.60;;
1282;SDS011;634;48.810;9.148;2022-07-06T12:24:22;2.53;;;2.20;;
1282;SDS011;634;48.810;9.148;2022-07-06T12:26:54;5.30;;;2.77;;
1282;SDS011;634;48.810;9.148;2022-07-06T12:29:26;5.10;;;3.07;;
1282;SDS011;634;48.810;9.148;2022-07-06T12:31:58;5.20;;;3.00;;
1282;SDS011;634;48.810;9.148;2022-07-06T12:34:31;3.40;;;2.83;;
1282;SDS011;634;48.810;9.148;2022-07-06T12:37:05;4.40;;;2.33;;
1282;SDS011;634;48.810;9.148;2022-07-06T12:39:40;5.03;;;3.00;;
1282;SDS011;634;48.810;9.148;2022-07-06T12:42:12;5.23;;;2.73;;
1282;SDS011;634;48.810;9.148;2022-07-06T12:44:46;6.40;;;3.03;;
1282;SDS011;634;48.810;9.148;2022-07-06T12:47:17;8.10;;;2.90;;
1282;SDS011;634;48.810;9.148;2022-07-06T12:50:03;7.63;;;2.27;;
1282;SDS011;634;48.810;9.148;2022-07-06T12:52:37;4.17;;;2.90;;
1282;SDS011;634;48.810;9.148;2022-07-06T12:55:07;3.70;;;2.40;;
1282;SDS011;634;48.810;9.148;2022-07-06T12:57:44;4.70;;;2.90;;
1282;SDS011;634;48.810;9.148;2022-07-06T13:00:18;3.60;;;2.73;;
1282;SDS011;634;48.810;9.148;2022-07-06T13:02:50;2.53;;;2.30;;
1282;SDS011;634;48.810;9.148;2022-07-06T13:05:22;6.10;;;2.63;;
1282;SDS011;634;48.810;9.148;2022-07-06T13:07:54;3.50;;;2.57;;
1282;SDS011;634;48.810;9.148;2022-07-06T13:10:26;5.07;;;2.80;;
1282;SDS011;634;48.810;9.148;2022-07-06T13:12:58;3.93;;;2.43;;
1282;SDS011;634;48.810;9.148;2022-07-06T13:15:30;3.30;;;2.20;;
1282;SDS011;634;48.810;9.148;2022-07-06T13:18:00;3.67;;;2.20;;
1282;SDS011;634;48.810;9.148;2022-07-06T13:20:29;2.30;;;1.87;;
1282;SDS011;634;48.810;9.148;2022-07-06T13:22:59;2.73;;;2.07;;
1282;SDS011;634;48.810;9.148;2022-07-06T13:25:28;3.33;;;2.10;;
1282;SDS011;634;48.810;9.148;2022-07-06T13:27:57;2.50;;;1.87;;
1282;SDS011;634;48.810;9.148;2022-07-06T13:30:27;1.93;;;1.70;;
1282;SDS011;634;48.810;9.148;2022-07-06T13:33:01;3.63;;;2.03;;
1282;SDS011;634;48.810;9.148;2022-07-06T13:35:33;3.57;;;2.50;;
1282;SDS011;634;48.810;9.148;2022-07-06T13:38:03;4.27;;;2.03;;
1282;SDS011;634;48.810;9.148;2022-07-06T13:40:32;4.87;;;2.10;;
1282;SDS011;634;48.810;9.148;2022-07-06T13:43:04;3.20;;;2.00;;
1282;SDS011;634;48.810;9.148;2022-07-06T13:45:33;5.23;;;2.70;;
1282;SDS011;634;48.810;9.148;2022-07-06T13:48:05;2.87;;;2.37;;
1282;SDS011;634;48.810;9.148;2022-07-06T13:50:35;2.67;;;1.70;;
1282;SDS011;634;48.810;9.148;2022-07-06T13:53:04;4.37;;;2.60;;
1282;SDS011;634;48.810;9.148;2022-07-06T13:55:34;2.63;;;2.43;;
1282;SDS011;634;48.810;9.148;2022-07-06T13:58:04;4.37;;;2.77;;
1282;SDS011;634;48.810;9.148;2022-07-06T14:00:33;8.70;;;2.50;;
1282;SDS011;634;48.810;9.148;2022-07-06T14:03:05;5.30;;;2.23;;
1282;SDS011;634;48.810;9.148;2022-07-06T14:05:35;5.70;;;2.90;;
1282;SDS011;634;48.810;9.148;2022-07-06T14:08:05;3.53;;;2.20;;
1282;SDS011;634;48.810;9.148;2022-07-06T14:10:34;2.50;;;2.30;;
1282;SDS011;634;48.810;9.148;2022-07-06T14:13:04;7.30;;;2.37;;
1282;SDS011;634;48.810;9.148;2022-07-06T14:15:33;3.13;;;2.43;;
1282;SDS011;634;48.810;9.148;2022-07-06T14:18:08;3.90;;;2.40;;
1282;SDS011;634;48.810;9.148;2022-07-06T14:20:37;2.57;;;2.13;;
1282;SDS011;634;48.810;9.148;2022-07-06T14:23:07;2.70;;;2.40;;
1282;SDS011;634;48.810;9.148;2022-07-06T14:25:37;2.33;;;2.13;;
1282;SDS011;634;48.810;9.148;2022-07-06T14:28:10;3.00;;;1.97;;
1282;SDS011;634;48.810;9.148;2022-07-06T14:30:40;4.07;;;2.40;;
1282;SDS011;634;48.810;9.148;2022-07-06T14:33:15;6.03;;;2.77;;
1282;SDS011;634;48.810;9.148;2022-07-06T14:35:46;4.17;;;2.43;;
1282;SDS011;634;48.810;9.148;2022-07-06T14:38:17;3.50;;;2.50;;
1282;SDS011;634;48.810;9.148;2022-07-06T14:40:49;3.70;;;2.47;;
1282;SDS011;634;48.810;9.148;2022-07-06T14:43:20;2.67;;;2.10;;
1282;SDS011;634;48.810;9.148;2022-07-06T14:45:53;3.00;;;2.43;;
1282;SDS011;634;48.810;9.148;2022-07-06T14:48:25;6.90;;;2.63;;
1282;SDS011;634;48.810;9.148;2022-07-06T14:50:57;3.47;;;3.00;;
1282;SDS011;634;48.810;9.148;2022-07-06T14:53:26;4.00;;;2.23;;
1282;SDS011;634;48.810;9.148;2022-07-06T14:55:56;4.20;;;2.43;;
1282;SDS011;634;48.810;9.148;2022-07-06T14:58:28;5.10;;;1.80;;
1282;SDS011;634;48.810;9.148;2022-07-06T15:01:01;4.70;;;2.20;;
1282;SDS011;634;48.810;9.148;2022-07-06T15:03:33;3.00;;;2.30;;
1282;SDS011;634;48.810;9.148;2022-07-06T15:06:05;4.50;;;2.30;;
1282;SDS011;634;48.810;9.148;2022-07-06T15:08:37;3.50;;;2.20;;
1282;SDS011;634;48.810;9.148;2022-07-06T15:11:06;2.40;;;2.20;;
1282;SDS011;634;48.810;9.148;2022-07-06T15:13:36;2.20;;;2.00;;
1282;SDS011;634;48.810;9.148;2022-07-06T15:16:10;4.83;;;2.50;;
1282;SDS011;634;48.810;9.148;2022-07-06T15:18:42;2.47;;;1.97;;
1282;SDS011;634;48.810;9.148;2022-07-06T15:21:14;3.77;;;2.00;;
1282;SDS011;634;48.810;9.148;2022-07-06T15:23:43;2.30;;;2.10;;
1282;SDS011;634;48.810;9.148;2022-07-06T15:26:15;2.43;;;2.13;;
1282;SDS011;634;48.810;9.148;2022-07-06T15:28:45;2.80;;;2.50;;
1282;SDS011;634;48.810;9.148;2022-07-06T15:31:14;4.80;;;1.87;;
1282;SDS011;634;48.810;9.148;2022-07-06T15:33:46;2.77;;;2.30;;
1282;SDS011;634;48.810;9.148;2022-07-06T15:36:16;2.37;;;1.80;;
1282;SDS011;634;48.810;9.148;2022-07-06T15:38:47;3.30;;;2.63;;
1282;SDS011;634;48.810;9.148;2022-07-06T15:41:17;5.90;;;2.83;;
1282;SDS011;634;48.810;9.148;2022-07-06T15:43:47;4.20;;;2.70;;
1282;SDS011;634;48.810;9.148;2022-07-06T15:46:17;5.47;;;2.20;;
1282;SDS011;634;48.810;9.148;2022-07-06T15:48:49;4.30;;;1.70;;
1282;SDS011;634;48.810;9.148;2022-07-06T15:51:19;3.27;;;2.00;;
1282;SDS011;634;48.810;9.148;2022-07-06T15:53:48;2.80;;;2.40;;
1282;SDS011;634;48.810;9.148;2022-07-06T15:56:18;2.40;;;2.10;;
1282;SDS011;634;48.810;9.148;2022-07-06T15:58:48;3.10;;;2.40;;
1282;SDS011;634;48.810;9.148;2022-07-06T16:01:17;1.90;;;1.80;;